A7ABI EBCI-EDDF
Flight info
| Callsign | A7ABI |
|---|---|
| Flight time | 0h 56m |
| Altitude | 7000 |
| Route | DCT |
| Aircraft | DA42/L-SBDGRY/S |
Departure
| Time | 2026-05-05 08:40 |
|---|---|
| Airport | Brussels South Charleroi Airport (EBCI) |
Arrival
| Time | 2026-05-05 09:36 |
|---|---|
| Airport | Frankfurt Main Airport (EDDF) |
| Time | Latitude | Longitude | Altitude | Speed | Heading |
|---|---|---|---|---|---|
| 2026-05-05 08:23 | 50.47031 | 4.47625 | 602 ft | 0 kts | 336° |
| 2026-05-05 08:34 | 50.47032 | 4.47625 | 602 ft | 1 kts | 336° |
| 2026-05-05 08:34 | 50.47036 | 4.47617 | 602 ft | 1 kts | 288° |
| 2026-05-05 08:35 | 50.47030 | 4.47609 | 602 ft | 3 kts | 144° |
| 2026-05-05 08:35 | 50.46952 | 4.47626 | 602 ft | 0 kts | 199° |
| 2026-05-05 08:36 | 50.46934 | 4.47620 | 602 ft | 5 kts | 184° |
| 2026-05-05 08:36 | 50.46905 | 4.47576 | 602 ft | 10 kts | 242° |
| 2026-05-05 08:37 | 50.46866 | 4.47435 | 603 ft | 16 kts | 246° |
| 2026-05-05 08:37 | 50.46795 | 4.47345 | 604 ft | 15 kts | 161° |
| 2026-05-05 08:37 | 50.46743 | 4.47397 | 603 ft | 0 kts | 155° |
| 2026-05-05 08:38 | 50.46719 | 4.47421 | 603 ft | 10 kts | 142° |
| 2026-05-05 08:39 | 50.46634 | 4.47483 | 605 ft | 16 kts | 199° |
| 2026-05-05 08:39 | 50.46556 | 4.47247 | 607 ft | 49 kts | 248° |
| 2026-05-05 08:39 | 50.46346 | 4.46489 | 707 ft | 90 kts | 250° |
| 2026-05-05 08:39 | 50.46040 | 4.45502 | 826 ft | 110 kts | 247° |
| 2026-05-05 08:40 | 50.45713 | 4.44286 | 840 ft | 126 kts | 263° |
| 2026-05-05 08:40 | 50.45540 | 4.42976 | 1091 ft | 123 kts | 258° |
| 2026-05-05 08:40 | 50.44913 | 4.42120 | 1338 ft | 124 kts | 187° |
| 2026-05-05 08:40 | 50.44234 | 4.42619 | 1581 ft | 106 kts | 110° |
| 2026-05-05 08:41 | 50.44023 | 4.43685 | 1830 ft | 102 kts | 99° |
| 2026-05-05 08:41 | 50.43791 | 4.44762 | 1994 ft | 110 kts | 101° |
| 2026-05-05 08:41 | 50.43551 | 4.45957 | 2006 ft | 119 kts | 101° |
| 2026-05-05 08:41 | 50.43317 | 4.47234 | 2008 ft | 124 kts | 101° |
| 2026-05-05 08:42 | 50.43067 | 4.48546 | 2006 ft | 126 kts | 101° |
| 2026-05-05 08:42 | 50.42803 | 4.49870 | 2007 ft | 129 kts | 102° |
| 2026-05-05 08:42 | 50.42551 | 4.51221 | 2000 ft | 128 kts | 99° |
| 2026-05-05 08:42 | 50.42296 | 4.52529 | 2003 ft | 123 kts | 100° |
| 2026-05-05 08:43 | 50.42041 | 4.53828 | 2008 ft | 127 kts | 100° |
| 2026-05-05 08:43 | 50.41799 | 4.55150 | 2011 ft | 128 kts | 100° |
| 2026-05-05 08:43 | 50.41546 | 4.56515 | 2010 ft | 132 kts | 100° |
| 2026-05-05 08:43 | 50.41285 | 4.57895 | 2006 ft | 132 kts | 99° |
| 2026-05-05 08:44 | 50.41021 | 4.59282 | 1999 ft | 133 kts | 100° |
| 2026-05-05 08:44 | 50.40766 | 4.60649 | 1995 ft | 130 kts | 101° |
| 2026-05-05 08:44 | 50.40504 | 4.62018 | 1998 ft | 132 kts | 101° |
| 2026-05-05 08:44 | 50.40250 | 4.63406 | 1986 ft | 132 kts | 102° |
| 2026-05-05 08:45 | 50.40005 | 4.64796 | 1997 ft | 134 kts | 99° |
| 2026-05-05 08:45 | 50.39751 | 4.66211 | 1999 ft | 136 kts | 101° |
| 2026-05-05 08:45 | 50.39480 | 4.67575 | 2137 ft | 122 kts | 101° |
| 2026-05-05 08:45 | 50.39234 | 4.68782 | 2392 ft | 112 kts | 101° |
| 2026-05-05 08:46 | 50.39032 | 4.69931 | 2639 ft | 108 kts | 101° |
| 2026-05-05 08:46 | 50.38837 | 4.71064 | 2889 ft | 107 kts | 100° |
| 2026-05-05 08:46 | 50.38640 | 4.72181 | 3136 ft | 106 kts | 100° |
| 2026-05-05 08:46 | 50.38447 | 4.73293 | 3383 ft | 106 kts | 101° |
| 2026-05-05 08:47 | 50.38257 | 4.74396 | 3628 ft | 104 kts | 100° |
| 2026-05-05 08:47 | 50.38055 | 4.75487 | 3858 ft | 105 kts | 100° |
| 2026-05-05 08:47 | 50.37856 | 4.76608 | 4061 ft | 107 kts | 100° |
| 2026-05-05 08:47 | 50.37651 | 4.77741 | 4265 ft | 109 kts | 101° |
| 2026-05-05 08:48 | 50.37457 | 4.78892 | 4473 ft | 107 kts | 99° |
| 2026-05-05 08:48 | 50.37264 | 4.79968 | 4664 ft | 99 kts | 101° |
| 2026-05-05 08:48 | 50.37088 | 4.80978 | 4793 ft | 96 kts | 100° |
| 2026-05-05 08:48 | 50.36918 | 4.81960 | 4934 ft | 93 kts | 99° |
| 2026-05-05 08:49 | 50.36742 | 4.82940 | 5074 ft | 94 kts | 100° |
| 2026-05-05 08:49 | 50.36570 | 4.83926 | 5222 ft | 94 kts | 102° |
| 2026-05-05 08:49 | 50.36384 | 4.84909 | 5373 ft | 94 kts | 100° |
| 2026-05-05 08:49 | 50.36195 | 4.85893 | 5520 ft | 95 kts | 101° |
| 2026-05-05 08:50 | 50.36020 | 4.86873 | 5682 ft | 93 kts | 100° |
| 2026-05-05 08:50 | 50.35845 | 4.87851 | 5829 ft | 93 kts | 101° |
| 2026-05-05 08:50 | 50.35685 | 4.88819 | 5979 ft | 92 kts | 100° |
| 2026-05-05 08:50 | 50.35514 | 4.89777 | 6135 ft | 91 kts | 100° |
| 2026-05-05 08:51 | 50.35341 | 4.90743 | 6285 ft | 93 kts | 100° |
| 2026-05-05 08:51 | 50.35161 | 4.91719 | 6434 ft | 94 kts | 101° |
| 2026-05-05 08:51 | 50.34974 | 4.92695 | 6576 ft | 94 kts | 100° |
| 2026-05-05 08:51 | 50.34794 | 4.93680 | 6724 ft | 94 kts | 101° |
| 2026-05-05 08:52 | 50.34615 | 4.94654 | 6870 ft | 93 kts | 102° |
| 2026-05-05 08:52 | 50.34431 | 4.95687 | 6889 ft | 104 kts | 101° |
| 2026-05-05 08:52 | 50.34240 | 4.96825 | 6904 ft | 111 kts | 100° |
| 2026-05-05 08:52 | 50.34031 | 4.98010 | 6904 ft | 115 kts | 100° |
| 2026-05-05 08:53 | 50.33856 | 4.99235 | 6895 ft | 116 kts | 97° |
| 2026-05-05 08:53 | 50.33692 | 5.00454 | 6894 ft | 115 kts | 97° |
| 2026-05-05 08:53 | 50.33529 | 5.01681 | 6893 ft | 116 kts | 98° |
| 2026-05-05 08:53 | 50.33365 | 5.02921 | 6896 ft | 116 kts | 97° |
| 2026-05-05 08:54 | 50.33200 | 5.04167 | 6891 ft | 117 kts | 98° |
| 2026-05-05 08:54 | 50.33034 | 5.05420 | 6892 ft | 118 kts | 97° |
| 2026-05-05 08:54 | 50.32867 | 5.06669 | 6892 ft | 117 kts | 98° |
| 2026-05-05 08:54 | 50.32756 | 5.07495 | 6893 ft | 117 kts | 100° |
| 2026-05-05 08:55 | 50.32581 | 5.08749 | 6899 ft | 118 kts | 99° |
| 2026-05-05 08:55 | 50.32406 | 5.10017 | 6897 ft | 120 kts | 100° |
| 2026-05-05 08:55 | 50.32228 | 5.11307 | 6896 ft | 122 kts | 100° |
| 2026-05-05 08:55 | 50.32047 | 5.12623 | 6898 ft | 125 kts | 100° |
| 2026-05-05 08:56 | 50.31861 | 5.13964 | 6896 ft | 127 kts | 100° |
| 2026-05-05 08:56 | 50.31658 | 5.15320 | 6893 ft | 128 kts | 101° |
| 2026-05-05 08:56 | 50.31460 | 5.16662 | 6895 ft | 127 kts | 100° |
| 2026-05-05 08:56 | 50.31230 | 5.18016 | 6881 ft | 129 kts | 102° |
| 2026-05-05 08:57 | 50.30980 | 5.19362 | 6881 ft | 129 kts | 104° |
| 2026-05-05 08:57 | 50.30699 | 5.20696 | 6866 ft | 130 kts | 113° |
| 2026-05-05 08:57 | 50.30306 | 5.21869 | 7077 ft | 114 kts | 113° |
| 2026-05-05 08:57 | 50.30133 | 5.23015 | 7309 ft | 105 kts | 97° |
| 2026-05-05 08:58 | 50.30000 | 5.24093 | 7536 ft | 97 kts | 100° |
| 2026-05-05 08:58 | 50.29867 | 5.25092 | 7742 ft | 93 kts | 100° |
| 2026-05-05 08:58 | 50.29727 | 5.26090 | 7872 ft | 97 kts | 100° |
| 2026-05-05 08:58 | 50.29572 | 5.27186 | 7882 ft | 108 kts | 101° |
| 2026-05-05 08:59 | 50.29410 | 5.28357 | 7889 ft | 111 kts | 101° |
| 2026-05-05 08:59 | 50.29243 | 5.29559 | 7886 ft | 113 kts | 101° |
| 2026-05-05 08:59 | 50.29075 | 5.30766 | 7886 ft | 114 kts | 101° |
| 2026-05-05 08:59 | 50.28906 | 5.31979 | 7888 ft | 114 kts | 101° |
| 2026-05-05 09:00 | 50.28739 | 5.33176 | 7885 ft | 114 kts | 100° |
| 2026-05-05 09:00 | 50.28569 | 5.34378 | 7882 ft | 113 kts | 101° |
| 2026-05-05 09:00 | 50.28398 | 5.35577 | 7881 ft | 113 kts | 101° |
| 2026-05-05 09:00 | 50.28229 | 5.36773 | 7880 ft | 112 kts | 101° |
| 2026-05-05 09:01 | 50.28060 | 5.37968 | 7881 ft | 113 kts | 101° |
| 2026-05-05 09:01 | 50.27894 | 5.39171 | 7882 ft | 114 kts | 101° |
| 2026-05-05 09:01 | 50.27724 | 5.40376 | 7882 ft | 113 kts | 101° |
| 2026-05-05 09:01 | 50.27556 | 5.41584 | 7883 ft | 113 kts | 101° |
| 2026-05-05 09:02 | 50.27387 | 5.42770 | 7883 ft | 113 kts | 101° |
| 2026-05-05 09:02 | 50.27218 | 5.43977 | 7883 ft | 113 kts | 100° |
| 2026-05-05 09:02 | 50.27052 | 5.45149 | 7878 ft | 107 kts | 101° |
| 2026-05-05 09:02 | 50.26894 | 5.46267 | 7869 ft | 105 kts | 101° |
| 2026-05-05 09:03 | 50.26735 | 5.47405 | 7867 ft | 107 kts | 101° |
| 2026-05-05 09:03 | 50.26579 | 5.48510 | 7867 ft | 105 kts | 101° |
| 2026-05-05 09:03 | 50.26421 | 5.49623 | 7866 ft | 104 kts | 100° |
| 2026-05-05 09:03 | 50.26261 | 5.50718 | 7869 ft | 103 kts | 101° |
| 2026-05-05 09:04 | 50.26104 | 5.51810 | 7910 ft | 99 kts | 101° |
| 2026-05-05 09:04 | 50.25961 | 5.52893 | 7874 ft | 104 kts | 100° |
| 2026-05-05 09:04 | 50.25835 | 5.54010 | 7874 ft | 105 kts | 101° |
| 2026-05-05 09:04 | 50.25706 | 5.55146 | 7881 ft | 115 kts | 101° |
| 2026-05-05 09:05 | 50.25569 | 5.56346 | 7878 ft | 110 kts | 101° |
| 2026-05-05 09:05 | 50.25436 | 5.57509 | 7879 ft | 108 kts | 101° |
| 2026-05-05 09:05 | 50.24209 | 5.68238 | 7867 ft | 105 kts | 101° |
| 2026-05-05 09:05 | 50.22119 | 5.86266 | 7868 ft | 106 kts | 101° |
| 2026-05-05 09:06 | 50.20201 | 6.04465 | 7861 ft | 108 kts | 101° |
| 2026-05-05 09:06 | 50.18484 | 6.23416 | 7876 ft | 107 kts | 100° |
| 2026-05-05 09:06 | 50.18278 | 6.25706 | 7857 ft | 108 kts | 101° |
| 2026-05-05 09:06 | 50.18163 | 6.26940 | 7648 ft | 122 kts | 101° |
| 2026-05-05 09:07 | 50.18032 | 6.28288 | 7417 ft | 128 kts | 101° |
| 2026-05-05 09:07 | 50.17899 | 6.29682 | 7184 ft | 131 kts | 101° |
| 2026-05-05 09:07 | 50.17762 | 6.31073 | 6951 ft | 132 kts | 101° |
| 2026-05-05 09:07 | 50.17627 | 6.32451 | 6865 ft | 122 kts | 101° |
| 2026-05-05 09:08 | 50.17503 | 6.33710 | 6853 ft | 113 kts | 101° |
| 2026-05-05 09:08 | 50.17393 | 6.34891 | 6852 ft | 107 kts | 101° |
| 2026-05-05 09:08 | 50.17287 | 6.36023 | 6853 ft | 104 kts | 101° |
| 2026-05-05 09:08 | 50.17188 | 6.37129 | 6851 ft | 102 kts | 101° |
| 2026-05-05 09:09 | 50.17090 | 6.38220 | 6853 ft | 101 kts | 101° |
| 2026-05-05 09:09 | 50.16994 | 6.39300 | 6850 ft | 100 kts | 100° |
| 2026-05-05 09:09 | 50.16899 | 6.40367 | 6852 ft | 99 kts | 101° |
| 2026-05-05 09:09 | 50.16801 | 6.41421 | 6853 ft | 98 kts | 101° |
| 2026-05-05 09:10 | 50.16711 | 6.42465 | 6843 ft | 99 kts | 101° |
| 2026-05-05 09:10 | 50.16638 | 6.43526 | 6842 ft | 99 kts | 101° |
| 2026-05-05 09:10 | 50.16575 | 6.44596 | 6841 ft | 99 kts | 101° |
| 2026-05-05 09:10 | 50.16506 | 6.45659 | 6842 ft | 98 kts | 101° |
| 2026-05-05 09:11 | 50.16441 | 6.46720 | 6844 ft | 98 kts | 100° |
| 2026-05-05 09:11 | 50.16372 | 6.47780 | 6844 ft | 99 kts | 101° |
| 2026-05-05 09:11 | 50.16298 | 6.48851 | 6847 ft | 100 kts | 101° |
| 2026-05-05 09:11 | 50.16231 | 6.49939 | 6846 ft | 100 kts | 101° |
| 2026-05-05 09:12 | 50.16159 | 6.51018 | 6847 ft | 100 kts | 101° |
| 2026-05-05 09:12 | 50.16094 | 6.52094 | 6848 ft | 100 kts | 101° |
| 2026-05-05 09:12 | 50.16029 | 6.53166 | 6849 ft | 100 kts | 101° |
| 2026-05-05 09:12 | 50.15961 | 6.54246 | 6848 ft | 100 kts | 101° |
| 2026-05-05 09:13 | 50.15891 | 6.55319 | 6847 ft | 99 kts | 101° |
| 2026-05-05 09:13 | 50.15823 | 6.56377 | 6856 ft | 100 kts | 101° |
| 2026-05-05 09:13 | 50.15758 | 6.57452 | 6857 ft | 99 kts | 101° |
| 2026-05-05 09:13 | 50.15691 | 6.58536 | 6860 ft | 101 kts | 101° |
| 2026-05-05 09:14 | 50.15622 | 6.59635 | 6862 ft | 102 kts | 100° |
| 2026-05-05 09:14 | 50.15549 | 6.60728 | 6863 ft | 101 kts | 101° |
| 2026-05-05 09:14 | 50.15479 | 6.61824 | 6865 ft | 102 kts | 100° |
| 2026-05-05 09:14 | 50.15402 | 6.62935 | 6865 ft | 104 kts | 101° |
| 2026-05-05 09:15 | 50.15326 | 6.64065 | 6863 ft | 105 kts | 101° |
| 2026-05-05 09:15 | 50.15252 | 6.65198 | 6863 ft | 105 kts | 101° |
| 2026-05-05 09:15 | 50.15186 | 6.66327 | 6864 ft | 104 kts | 101° |
| 2026-05-05 09:15 | 50.15114 | 6.67449 | 6863 ft | 104 kts | 101° |
| 2026-05-05 09:16 | 50.15043 | 6.68547 | 6865 ft | 103 kts | 101° |
| 2026-05-05 09:16 | 50.14970 | 6.69654 | 6863 ft | 102 kts | 102° |
| 2026-05-05 09:16 | 50.14898 | 6.70756 | 6861 ft | 102 kts | 101° |
| 2026-05-05 09:16 | 50.14831 | 6.71853 | 6860 ft | 101 kts | 101° |
| 2026-05-05 09:17 | 50.14600 | 6.75488 | 6862 ft | 100 kts | 101° |
| 2026-05-05 09:17 | 50.13385 | 6.93235 | 6878 ft | 101 kts | 101° |
| 2026-05-05 09:17 | 50.12146 | 7.09709 | 6147 ft | 128 kts | 98° |
| 2026-05-05 09:17 | 50.12039 | 7.11103 | 6020 ft | 131 kts | 102° |
| 2026-05-05 09:18 | 50.11144 | 7.19163 | 5857 ft | 108 kts | 103° |
| 2026-05-05 09:18 | 50.09526 | 7.37842 | 5872 ft | 99 kts | 102° |
| 2026-05-05 09:18 | 50.08215 | 7.54277 | 5870 ft | 97 kts | 101° |
| 2026-05-05 09:18 | 50.06906 | 7.71179 | 5870 ft | 100 kts | 102° |
| 2026-05-05 09:19 | 50.05361 | 7.89293 | 5867 ft | 102 kts | 102° |
| 2026-05-05 09:19 | 50.03917 | 8.06437 | 5878 ft | 100 kts | 101° |
| 2026-05-05 09:19 | 50.03794 | 8.07869 | 5878 ft | 102 kts | 101° |
| 2026-05-05 09:19 | 50.03707 | 8.08927 | 5949 ft | 92 kts | 101° |
| 2026-05-05 09:20 | 50.03632 | 8.09903 | 5942 ft | 95 kts | 102° |
| 2026-05-05 09:20 | 50.03542 | 8.10949 | 5920 ft | 99 kts | 102° |
| 2026-05-05 09:20 | 50.03452 | 8.12011 | 5924 ft | 99 kts | 101° |
| 2026-05-05 09:20 | 50.03361 | 8.13079 | 5929 ft | 101 kts | 101° |
| 2026-05-05 09:21 | 50.03269 | 8.14163 | 5923 ft | 101 kts | 101° |
| 2026-05-05 09:21 | 50.03177 | 8.15238 | 5920 ft | 102 kts | 101° |
| 2026-05-05 09:21 | 50.03083 | 8.16328 | 5922 ft | 101 kts | 101° |
| 2026-05-05 09:21 | 50.02990 | 8.17402 | 5923 ft | 100 kts | 101° |
| 2026-05-05 09:22 | 50.02895 | 8.18481 | 5922 ft | 101 kts | 102° |
| 2026-05-05 09:22 | 50.02653 | 8.21360 | 5937 ft | 103 kts | 101° |
| 2026-05-05 09:22 | 50.01683 | 8.37160 | 5914 ft | 101 kts | 100° |
| 2026-05-05 09:22 | 50.01543 | 8.39708 | 5910 ft | 101 kts | 102° |
| 2026-05-05 09:23 | 50.01471 | 8.40787 | 5912 ft | 100 kts | 101° |
| 2026-05-05 09:23 | 50.01399 | 8.41874 | 5909 ft | 101 kts | 101° |
| 2026-05-05 09:23 | 50.01327 | 8.42959 | 5872 ft | 103 kts | 101° |
| 2026-05-05 09:23 | 50.01242 | 8.44112 | 5665 ft | 115 kts | 101° |
| 2026-05-05 09:24 | 50.01136 | 8.45402 | 5435 ft | 124 kts | 101° |
| 2026-05-05 09:24 | 50.01014 | 8.46782 | 5195 ft | 129 kts | 101° |
| 2026-05-05 09:24 | 50.00892 | 8.48163 | 4961 ft | 130 kts | 97° |
| 2026-05-05 09:24 | 50.01062 | 8.49538 | 4718 ft | 132 kts | 75° |
| 2026-05-05 09:25 | 50.01317 | 8.50912 | 4470 ft | 133 kts | 77° |
| 2026-05-05 09:25 | 50.01565 | 8.52296 | 4224 ft | 133 kts | 77° |
| 2026-05-05 09:25 | 50.01779 | 8.53693 | 3941 ft | 132 kts | 79° |
| 2026-05-05 09:25 | 50.02007 | 8.55003 | 3896 ft | 118 kts | 75° |
| 2026-05-05 09:26 | 50.02241 | 8.56166 | 3890 ft | 109 kts | 75° |
| 2026-05-05 09:26 | 50.02455 | 8.57275 | 3886 ft | 106 kts | 75° |
| 2026-05-05 09:26 | 50.02659 | 8.58349 | 3887 ft | 102 kts | 77° |
| 2026-05-05 09:26 | 50.02860 | 8.59400 | 3843 ft | 104 kts | 76° |
| 2026-05-05 09:27 | 50.03069 | 8.60512 | 3720 ft | 110 kts | 77° |
| 2026-05-05 09:27 | 50.03279 | 8.61682 | 3618 ft | 116 kts | 80° |
| 2026-05-05 09:27 | 50.03507 | 8.62920 | 3498 ft | 119 kts | 75° |
| 2026-05-05 09:27 | 50.03740 | 8.64147 | 3384 ft | 120 kts | 76° |
| 2026-05-05 09:28 | 50.03949 | 8.65394 | 3270 ft | 118 kts | 77° |
| 2026-05-05 09:28 | 50.04138 | 8.66630 | 3137 ft | 117 kts | 77° |
| 2026-05-05 09:28 | 50.04334 | 8.67847 | 3014 ft | 115 kts | 77° |
| 2026-05-05 09:28 | 50.04544 | 8.69054 | 2906 ft | 115 kts | 75° |
| 2026-05-05 09:29 | 50.04740 | 8.70212 | 2899 ft | 107 kts | 77° |
| 2026-05-05 09:29 | 50.04924 | 8.71305 | 2883 ft | 101 kts | 76° |
| 2026-05-05 09:29 | 50.05096 | 8.72316 | 2888 ft | 92 kts | 76° |
| 2026-05-05 09:29 | 50.05253 | 8.73235 | 2885 ft | 84 kts | 76° |
| 2026-05-05 09:30 | 50.05397 | 8.74082 | 2885 ft | 78 kts | 76° |
| 2026-05-05 09:30 | 50.05540 | 8.74867 | 2885 ft | 75 kts | 76° |
| 2026-05-05 09:30 | 50.05680 | 8.75678 | 2891 ft | 81 kts | 77° |
| 2026-05-05 09:30 | 50.05935 | 8.76460 | 2887 ft | 85 kts | 30° |
| 2026-05-05 09:31 | 50.06501 | 8.76310 | 2907 ft | 80 kts | 327° |
| 2026-05-05 09:31 | 50.06909 | 8.75706 | 2878 ft | 86 kts | 310° |
| 2026-05-05 09:31 | 50.07200 | 8.74934 | 2907 ft | 82 kts | 284° |
| 2026-05-05 09:31 | 50.07252 | 8.74023 | 2853 ft | 89 kts | 269° |
| 2026-05-05 09:32 | 50.07210 | 8.73037 | 2793 ft | 91 kts | 263° |
| 2026-05-05 09:32 | 50.07149 | 8.72043 | 2629 ft | 99 kts | 259° |
| 2026-05-05 09:32 | 50.07019 | 8.71017 | 2502 ft | 92 kts | 259° |
| 2026-05-05 09:32 | 50.06922 | 8.70079 | 2419 ft | 87 kts | 260° |
| 2026-05-05 09:33 | 50.06832 | 8.69159 | 2303 ft | 88 kts | 257° |
| 2026-05-05 09:33 | 50.06689 | 8.68255 | 2203 ft | 84 kts | 257° |
| 2026-05-05 09:33 | 50.06540 | 8.67395 | 2099 ft | 82 kts | 249° |
| 2026-05-05 09:33 | 50.06347 | 8.66544 | 1945 ft | 86 kts | 253° |
| 2026-05-05 09:34 | 50.06158 | 8.65636 | 1787 ft | 85 kts | 250° |
| 2026-05-05 09:34 | 50.05961 | 8.64776 | 1579 ft | 89 kts | 250° |
| 2026-05-05 09:34 | 50.05735 | 8.63849 | 1308 ft | 90 kts | 251° |
| 2026-05-05 09:34 | 50.05529 | 8.62984 | 1140 ft | 83 kts | 251° |
| 2026-05-05 09:35 | 50.05329 | 8.62148 | 933 ft | 81 kts | 250° |
| 2026-05-05 09:35 | 50.04963 | 8.60600 | 653 ft | 70 kts | 251° |
| 2026-05-05 09:35 | 50.04803 | 8.59924 | 548 ft | 63 kts | 251° |
| 2026-05-05 09:36 | 50.04658 | 8.59316 | 461 ft | 57 kts | 252° |
| 2026-05-05 09:36 | 50.04526 | 8.58756 | 369 ft | 53 kts | 251° |
| 2026-05-05 09:36 | 50.04419 | 8.58291 | 326 ft | 14 kts | 252° |